createdAt,value
2023-10-12T00:03:26.418Z,23.12
2023-10-12T00:08:32.249Z,23.14
2023-10-12T00:13:42.236Z,23.09
2023-10-12T00:18:46.901Z,23.08
2023-10-12T00:23:53.232Z,23.08
2023-10-12T00:28:56.723Z,23.07
2023-10-12T00:33:59.637Z,23.07
2023-10-12T00:39:10.210Z,23.08
2023-10-12T00:44:14.096Z,23.06
2023-10-12T00:49:18.945Z,23.06
2023-10-12T00:54:42.149Z,23.10
2023-10-12T00:59:48.028Z,23.09
2023-10-12T01:04:54.217Z,23.07
2023-10-12T01:10:06.055Z,23.06
2023-10-12T01:15:13.185Z,23.05
2023-10-12T01:20:18.362Z,23.03
2023-10-12T01:25:29.782Z,23.02
2023-10-12T01:30:37.103Z,23.00
2023-10-12T01:35:42.149Z,22.99
2023-10-12T01:40:54.588Z,22.97
2023-10-12T01:46:02.550Z,22.96
2023-10-12T01:51:11.720Z,22.93
2023-10-12T01:56:16.404Z,22.90
2023-10-12T02:01:21.915Z,22.88
2023-10-12T02:06:29.562Z,22.84
2023-10-12T02:11:44.032Z,22.80
2023-10-12T02:16:54.630Z,22.77
2023-10-12T02:22:02.569Z,22.74
2023-10-12T02:27:06.961Z,22.73
2023-10-12T02:32:24.074Z,22.70
2023-10-12T02:37:29.134Z,22.69
2023-10-12T02:42:43.542Z,22.68
2023-10-12T02:47:48.262Z,22.65
2023-10-12T02:52:53.775Z,22.62
2023-10-12T02:58:01.129Z,22.60
2023-10-12T03:03:18.197Z,22.61
2023-10-12T03:08:22.260Z,22.58
2023-10-12T03:13:27.317Z,22.56
2023-10-12T03:18:30.510Z,22.53
2023-10-12T03:23:35.253Z,22.52
2023-10-12T03:28:45.275Z,22.51
2023-10-12T03:33:54.483Z,22.51
2023-10-12T03:39:14.718Z,22.49
2023-10-12T03:44:23.297Z,22.48
2023-10-12T03:49:33.300Z,22.47
2023-10-12T03:54:36.385Z,22.46
2023-10-12T03:59:45.342Z,22.43
2023-10-12T04:05:00.856Z,22.42
2023-10-12T04:10:14.954Z,22.39
2023-10-12T04:15:31.089Z,22.37
2023-10-12T04:20:35.077Z,22.35
2023-10-12T04:25:47.993Z,22.34
2023-10-12T04:31:15.770Z,22.31
2023-10-12T04:36:34.421Z,22.31
2023-10-12T04:41:43.240Z,22.30
2023-10-12T04:46:49.403Z,22.28
2023-10-12T04:52:10.344Z,22.26
2023-10-12T04:57:16.193Z,22.27
2023-10-12T05:02:31.213Z,22.24
2023-10-12T05:07:54.975Z,22.24
2023-10-12T05:13:03.621Z,22.24
2023-10-12T05:18:08.334Z,22.23
2023-10-12T05:23:11.665Z,22.19
2023-10-12T05:28:15.407Z,22.19
2023-10-12T05:33:40.252Z,22.17
2023-10-12T05:38:49.809Z,22.15
2023-10-12T05:43:58.024Z,22.14
2023-10-12T05:49:03.379Z,22.12
2023-10-12T05:54:08.614Z,22.10
2023-10-12T05:59:13.501Z,22.07
2023-10-12T06:04:23.636Z,22.08
2023-10-12T06:09:27.153Z,22.06
2023-10-12T06:14:30.077Z,22.05
2023-10-12T06:19:36.534Z,22.01
2023-10-12T06:24:42.898Z,22.00
2023-10-12T06:29:45.850Z,21.98
2023-10-12T06:35:04.410Z,21.98
2023-10-12T06:40:38.557Z,21.95
2023-10-12T06:45:48.306Z,21.95
2023-10-12T06:51:03.334Z,21.92
2023-10-12T06:56:17.681Z,21.92
2023-10-12T07:01:27.853Z,21.90
2023-10-12T07:06:33.602Z,21.82
2023-10-12T07:11:40.713Z,21.34
2023-10-12T07:16:56.016Z,21.30
2023-10-12T07:22:02.806Z,21.08
2023-10-12T07:27:13.052Z,20.92
2023-10-12T07:32:32.483Z,20.76
2023-10-12T07:37:44.821Z,20.90
2023-10-12T07:42:49.207Z,21.14
2023-10-12T07:48:00.487Z,21.31
2023-10-12T07:53:16.332Z,21.40
2023-10-12T07:58:20.072Z,21.48
2023-10-12T08:03:26.710Z,21.51
2023-10-12T08:08:38.535Z,21.57
2023-10-12T08:13:49.889Z,21.60
2023-10-12T08:19:26.223Z,21.64
2023-10-12T08:24:37.424Z,21.64
2023-10-12T08:29:57.878Z,21.64
2023-10-12T08:35:32.654Z,21.65
2023-10-12T08:40:41.381Z,21.64
2023-10-12T08:45:44.736Z,21.64
2023-10-12T08:50:59.405Z,21.66
2023-10-12T08:56:09.795Z,21.65
2023-10-12T09:01:21.514Z,21.67
2023-10-12T09:06:47.402Z,21.69
2023-10-12T09:12:00.998Z,21.70
2023-10-12T09:17:05.921Z,21.71
2023-10-12T09:22:10.631Z,21.68
2023-10-12T09:27:27.254Z,21.69
2023-10-12T09:42:49.966Z,21.71
2023-10-12T09:47:57.084Z,21.71
2023-10-12T09:53:00.496Z,21.73
2023-10-12T09:58:15.637Z,21.72
2023-10-12T10:03:19.247Z,21.70
2023-10-12T10:08:27.823Z,21.74
2023-10-12T10:13:48.048Z,21.76
2023-10-12T10:18:58.054Z,21.77
2023-10-12T10:24:03.801Z,21.78
2023-10-12T10:29:08.948Z,21.78
2023-10-12T10:34:13.749Z,21.76
2023-10-12T10:39:30.581Z,21.76
2023-10-12T10:44:40.335Z,21.75
2023-10-12T10:49:46.613Z,21.77
2023-10-12T10:55:01.814Z,21.75
2023-10-12T11:00:15.225Z,21.76
2023-10-12T11:05:20.867Z,21.68
2023-10-12T11:10:32.652Z,21.63
2023-10-12T11:15:37.075Z,21.66
2023-10-12T11:20:46.507Z,21.68
2023-10-12T11:25:49.673Z,21.64
2023-10-12T11:31:03.063Z,21.68
2023-10-12T11:41:14.127Z,21.70
2023-10-12T11:46:18.467Z,21.72
2023-10-12T11:51:22.640Z,21.72
2023-10-12T11:56:26.252Z,21.66
2023-10-12T12:01:31.350Z,21.67
2023-10-12T12:06:34.378Z,21.63
2023-10-12T12:11:39.628Z,21.67
2023-10-12T12:16:44.836Z,21.68
2023-10-12T12:21:48.106Z,21.69
2023-10-12T12:26:53.279Z,21.61
2023-10-12T12:31:59.125Z,21.64
2023-10-12T12:37:06.194Z,21.70
2023-10-12T12:42:11.575Z,21.22
2023-10-12T12:47:17.908Z,20.61
2023-10-12T12:52:20.999Z,20.25
2023-10-12T12:57:24.584Z,20.72
2023-10-12T13:02:29.592Z,21.16
2023-10-12T13:07:33.419Z,21.25
2023-10-12T13:12:36.507Z,21.36
2023-10-12T13:17:41.110Z,21.39
2023-10-12T13:22:46.442Z,21.43
2023-10-12T13:27:50.755Z,21.42
2023-10-12T13:33:01.079Z,21.48
2023-10-12T13:38:06.500Z,21.50
2023-10-12T13:43:16.315Z,21.56
2023-10-12T13:48:22.707Z,21.60
2023-10-12T13:53:25.942Z,21.63
2023-10-12T13:58:29.005Z,21.68
2023-10-12T14:03:36.388Z,21.71
2023-10-12T14:08:41.938Z,21.72
2023-10-12T14:13:45.212Z,21.72
2023-10-12T14:18:51.329Z,21.68
2023-10-12T14:23:59.579Z,21.66
2023-10-12T14:29:06.911Z,21.62
2023-10-12T14:34:14.717Z,21.66
2023-10-12T14:39:24.097Z,21.66
2023-10-12T14:44:28.742Z,21.66
2023-10-12T14:49:34.705Z,21.66
2023-10-12T14:54:38.133Z,21.65
2023-10-12T14:59:41.614Z,21.64
2023-10-12T15:04:45.889Z,21.65
2023-10-12T15:09:51.008Z,21.66
2023-10-12T15:14:55.497Z,21.65
2023-10-12T15:19:59.831Z,21.62
2023-10-12T15:25:05.851Z,21.63
2023-10-12T15:30:12.230Z,21.62
2023-10-12T15:35:26.627Z,21.63
2023-10-12T15:40:29.850Z,21.66
2023-10-12T15:45:33.213Z,21.66
2023-10-12T15:50:37.739Z,21.64
2023-10-12T15:55:41.510Z,21.64
2023-10-12T16:00:44.372Z,21.64
2023-10-12T16:05:50.883Z,21.62
2023-10-12T16:10:55.251Z,21.61
2023-10-12T16:15:58.321Z,21.57
2023-10-12T16:21:10.282Z,21.54
2023-10-12T16:26:14.407Z,21.55
2023-10-12T16:31:17.703Z,21.53
2023-10-12T16:36:22.838Z,21.51
2023-10-12T16:41:27.379Z,21.50
2023-10-12T16:46:33.409Z,21.52
2023-10-12T16:51:38.008Z,21.50
2023-10-12T16:56:44.602Z,21.50
2023-10-12T17:01:48.076Z,21.55
2023-10-12T17:06:53.780Z,21.60
2023-10-12T17:11:57.856Z,21.66
2023-10-12T17:17:01.133Z,21.75
2023-10-12T17:22:06.176Z,21.80
2023-10-12T17:27:09.109Z,21.83
2023-10-12T17:32:12.553Z,21.88
2023-10-12T17:37:16.977Z,21.88
2023-10-12T17:42:20.030Z,21.90
2023-10-12T17:47:23.350Z,21.95
2023-10-12T17:52:27.929Z,21.96
2023-10-12T17:57:31.001Z,21.99
2023-10-12T18:02:34.079Z,22.02
2023-10-12T18:07:38.358Z,22.05
2023-10-12T18:12:41.191Z,22.07
2023-10-12T18:17:46.034Z,22.11
2023-10-12T18:22:50.493Z,22.13
2023-10-12T18:27:53.497Z,22.14
2023-10-12T18:32:56.554Z,22.17
2023-10-12T18:38:00.792Z,22.18
2023-10-12T18:43:04.100Z,22.22
2023-10-12T18:48:09.708Z,22.22
2023-10-12T18:53:14.498Z,22.25
2023-10-12T18:58:17.385Z,22.28
2023-10-12T19:03:20.398Z,22.30
2023-10-12T19:08:27.167Z,22.30
2023-10-12T19:13:30.614Z,22.34
2023-10-12T19:18:33.623Z,22.35
2023-10-12T19:23:38.213Z,22.35
2023-10-12T19:28:41.051Z,22.38
2023-10-12T19:33:45.075Z,22.38
2023-10-12T19:38:50.820Z,22.40
2023-10-12T19:43:54.426Z,22.42
2023-10-12T19:48:57.424Z,22.44
2023-10-12T19:54:01.704Z,22.47
2023-10-12T19:59:07.397Z,22.46
2023-10-12T20:04:10.402Z,22.48
2023-10-12T20:09:14.721Z,22.48
2023-10-12T20:14:19.114Z,22.47
2023-10-12T20:19:26.034Z,22.49
2023-10-12T20:24:33.712Z,22.55
2023-10-12T20:29:36.649Z,22.53
2023-10-12T20:34:39.505Z,22.59
2023-10-12T20:39:43.766Z,22.58
2023-10-12T20:44:46.597Z,22.59
2023-10-12T20:49:49.465Z,22.61
2023-10-12T20:54:56.311Z,22.64
2023-10-12T20:59:59.454Z,22.65
2023-10-12T21:05:05.544Z,22.63
2023-10-12T21:10:14.050Z,22.62
2023-10-12T21:15:20.637Z,22.60
2023-10-12T21:20:38.821Z,22.59
2023-10-12T21:25:46.398Z,22.56
2023-10-12T21:30:52.230Z,22.55
2023-10-12T21:35:57.689Z,22.52
2023-10-12T21:41:06.953Z,22.52
2023-10-12T21:46:10.058Z,22.49
2023-10-12T21:51:13.080Z,22.47
2023-10-12T21:56:17.271Z,22.43
2023-10-12T22:01:27.693Z,22.39
2023-10-12T22:06:31.700Z,22.33
2023-10-12T22:11:39.908Z,22.31
2023-10-12T22:16:43.148Z,22.31
2023-10-12T22:21:47.869Z,22.27
2023-10-12T22:26:53.189Z,22.24
2023-10-12T22:31:57.039Z,22.21
2023-10-12T22:37:00.034Z,22.18
2023-10-12T22:42:04.388Z,22.13
2023-10-12T22:47:09.988Z,22.12
2023-10-12T22:52:13.089Z,22.09
2023-10-12T22:57:17.277Z,22.08
2023-10-12T23:02:20.219Z,22.05
2023-10-12T23:07:23.643Z,22.04
2023-10-12T23:12:27.849Z,22.02
2023-10-12T23:17:30.740Z,22.01
2023-10-12T23:22:34.509Z,22.00
2023-10-12T23:27:41.864Z,22.00
2023-10-12T23:32:44.719Z,21.95
2023-10-12T23:38:08.523Z,21.95
2023-10-12T23:43:14.824Z,21.93
2023-10-12T23:48:18.431Z,21.93
2023-10-12T23:53:25.359Z,21.92
2023-10-12T23:58:29.646Z,21.91
